sensor_id;sensor_type;location;lat;lon;timestamp;temperature;humidity
73322;DHT22;61549;37.044;22.128;2023-05-10T00:00:14;20.50;59.80
73322;DHT22;61549;37.044;22.128;2023-05-10T00:02:40;20.50;59.60
73322;DHT22;61549;37.044;22.128;2023-05-10T00:05:12;20.50;59.30
73322;DHT22;61549;37.044;22.128;2023-05-10T00:07:38;20.50;59.20
73322;DHT22;61549;37.044;22.128;2023-05-10T00:10:04;20.50;59.70
73322;DHT22;61549;37.044;22.128;2023-05-10T00:12:30;20.50;59.60
73322;DHT22;61549;37.044;22.128;2023-05-10T00:14:55;20.50;59.60
73322;DHT22;61549;37.044;22.128;2023-05-10T00:17:21;20.50;59.80
73322;DHT22;61549;37.044;22.128;2023-05-10T00:19:47;20.50;59.90
73322;DHT22;61549;37.044;22.128;2023-05-10T00:22:13;20.50;60.10
73322;DHT22;61549;37.044;22.128;2023-05-10T00:24:39;20.40;60.00
73322;DHT22;61549;37.044;22.128;2023-05-10T00:27:05;20.40;60.00
73322;DHT22;61549;37.044;22.128;2023-05-10T00:29:31;20.40;60.20
73322;DHT22;61549;37.044;22.128;2023-05-10T00:31:57;20.40;60.20
73322;DHT22;61549;37.044;22.128;2023-05-10T00:34:23;20.40;60.30
73322;DHT22;61549;37.044;22.128;2023-05-10T00:36:50;20.30;60.10
73322;DHT22;61549;37.044;22.128;2023-05-10T00:39:16;20.30;60.10
73322;DHT22;61549;37.044;22.128;2023-05-10T00:41:48;20.30;60.00
73322;DHT22;61549;37.044;22.128;2023-05-10T00:44:13;20.30;60.00
73322;DHT22;61549;37.044;22.128;2023-05-10T00:46:40;20.20;60.20
73322;DHT22;61549;37.044;22.128;2023-05-10T00:49:06;20.10;60.40
73322;DHT22;61549;37.044;22.128;2023-05-10T00:51:33;20.10;61.00
73322;DHT22;61549;37.044;22.128;2023-05-10T00:53:59;20.10;60.30
73322;DHT22;61549;37.044;22.128;2023-05-10T00:56:25;20.10;60.30
73322;DHT22;61549;37.044;22.128;2023-05-10T00:58:52;20.10;60.30
73322;DHT22;61549;37.044;22.128;2023-05-10T01:01:19;20.10;60.80
73322;DHT22;61549;37.044;22.128;2023-05-10T01:03:45;20.10;60.00
73322;DHT22;61549;37.044;22.128;2023-05-10T01:06:12;20.10;59.80
73322;DHT22;61549;37.044;22.128;2023-05-10T01:08:48;20.20;59.80
73322;DHT22;61549;37.044;22.128;2023-05-10T01:11:14;20.10;59.60
73322;DHT22;61549;37.044;22.128;2023-05-10T01:13:43;20.10;59.50
73322;DHT22;61549;37.044;22.128;2023-05-10T01:16:12;20.10;59.40
73322;DHT22;61549;37.044;22.128;2023-05-10T01:18:40;20.00;59.50
73322;DHT22;61549;37.044;22.128;2023-05-10T01:21:20;20.00;59.50
73322;DHT22;61549;37.044;22.128;2023-05-10T01:24:27;20.00;59.30
73322;DHT22;61549;37.044;22.128;2023-05-10T01:27:17;20.00;59.10
73322;DHT22;61549;37.044;22.128;2023-05-10T01:38:29;20.00;59.30
73322;DHT22;61549;37.044;22.128;2023-05-10T01:41:24;20.00;59.30
73322;DHT22;61549;37.044;22.128;2023-05-10T01:43:57;20.00;59.50
73322;DHT22;61549;37.044;22.128;2023-05-10T01:46:37;20.00;59.50
73322;DHT22;61549;37.044;22.128;2023-05-10T01:49:10;20.00;59.70
73322;DHT22;61549;37.044;22.128;2023-05-10T01:51:48;20.00;59.60
73322;DHT22;61549;37.044;22.128;2023-05-10T01:54:19;20.00;59.70
73322;DHT22;61549;37.044;22.128;2023-05-10T01:57:05;19.90;60.00
73322;DHT22;61549;37.044;22.128;2023-05-10T01:59:35;19.90;60.00
73322;DHT22;61549;37.044;22.128;2023-05-10T02:02:10;19.90;60.00
73322;DHT22;61549;37.044;22.128;2023-05-10T02:04:39;19.90;60.30
73322;DHT22;61549;37.044;22.128;2023-05-10T02:07:06;19.90;60.50
73322;DHT22;61549;37.044;22.128;2023-05-10T02:09:33;19.90;60.60
73322;DHT22;61549;37.044;22.128;2023-05-10T02:12:02;19.90;60.80
73322;DHT22;61549;37.044;22.128;2023-05-10T02:14:33;19.90;60.90
73322;DHT22;61549;37.044;22.128;2023-05-10T02:17:04;20.00;61.10
73322;DHT22;61549;37.044;22.128;2023-05-10T02:19:32;20.00;61.30
73322;DHT22;61549;37.044;22.128;2023-05-10T02:21:59;20.00;61.30
73322;DHT22;61549;37.044;22.128;2023-05-10T02:24:27;20.00;61.30
73322;DHT22;61549;37.044;22.128;2023-05-10T02:26:56;20.00;61.30
73322;DHT22;61549;37.044;22.128;2023-05-10T02:29:24;20.10;61.40
73322;DHT22;61549;37.044;22.128;2023-05-10T02:31:53;20.10;61.40
73322;DHT22;61549;37.044;22.128;2023-05-10T02:34:23;20.10;61.40
73322;DHT22;61549;37.044;22.128;2023-05-10T02:36:51;20.10;61.40
73322;DHT22;61549;37.044;22.128;2023-05-10T02:39:21;20.20;61.90
73322;DHT22;61549;37.044;22.128;2023-05-10T02:41:50;20.30;61.40
73322;DHT22;61549;37.044;22.128;2023-05-10T02:44:19;20.20;61.50
73322;DHT22;61549;37.044;22.128;2023-05-10T02:46:45;20.20;61.50
73322;DHT22;61549;37.044;22.128;2023-05-10T02:49:15;20.10;61.70
73322;DHT22;61549;37.044;22.128;2023-05-10T02:51:51;20.10;61.90
73322;DHT22;61549;37.044;22.128;2023-05-10T02:54:27;20.20;61.90
73322;DHT22;61549;37.044;22.128;2023-05-10T02:56:57;20.10;62.00
73322;DHT22;61549;37.044;22.128;2023-05-10T02:59:29;20.00;62.20
73322;DHT22;61549;37.044;22.128;2023-05-10T03:01:55;20.00;62.60
73322;DHT22;61549;37.044;22.128;2023-05-10T03:04:21;20.00;63.00
73322;DHT22;61549;37.044;22.128;2023-05-10T03:06:48;20.00;63.20
73322;DHT22;61549;37.044;22.128;2023-05-10T03:09:13;19.90;63.40
73322;DHT22;61549;37.044;22.128;2023-05-10T03:14:39;20.00;63.30
73322;DHT22;61549;37.044;22.128;2023-05-10T03:19:58;19.90;63.80
73322;DHT22;61549;37.044;22.128;2023-05-10T03:22:37;19.90;63.90
73322;DHT22;61549;37.044;22.128;2023-05-10T03:25:06;19.90;63.90
73322;DHT22;61549;37.044;22.128;2023-05-10T03:27:32;19.90;63.90
73322;DHT22;61549;37.044;22.128;2023-05-10T03:29:59;20.00;63.90
73322;DHT22;61549;37.044;22.128;2023-05-10T03:32:29;20.00;63.40
73322;DHT22;61549;37.044;22.128;2023-05-10T03:34:57;20.00;63.30
73322;DHT22;61549;37.044;22.128;2023-05-10T03:37:23;20.10;63.90
73322;DHT22;61549;37.044;22.128;2023-05-10T03:39:48;20.10;63.90
73322;DHT22;61549;37.044;22.128;2023-05-10T03:42:14;20.10;62.80
73322;DHT22;61549;37.044;22.128;2023-05-10T03:44:40;20.10;61.80
73322;DHT22;61549;37.044;22.128;2023-05-10T03:47:06;20.10;61.80
73322;DHT22;61549;37.044;22.128;2023-05-10T03:49:34;20.10;61.20
73322;DHT22;61549;37.044;22.128;2023-05-10T03:52:00;20.10;61.20
73322;DHT22;61549;37.044;22.128;2023-05-10T03:54:26;20.10;62.10
73322;DHT22;61549;37.044;22.128;2023-05-10T03:56:54;20.20;62.90
73322;DHT22;61549;37.044;22.128;2023-05-10T03:59:20;20.20;63.30
73322;DHT22;61549;37.044;22.128;2023-05-10T04:01:46;20.30;63.90
73322;DHT22;61549;37.044;22.128;2023-05-10T04:04:11;20.30;62.80
73322;DHT22;61549;37.044;22.128;2023-05-10T04:06:38;20.40;61.80
73322;DHT22;61549;37.044;22.128;2023-05-10T04:09:13;20.50;62.10
73322;DHT22;61549;37.044;22.128;2023-05-10T04:11:42;20.50;62.50
73322;DHT22;61549;37.044;22.128;2023-05-10T04:14:08;20.50;62.70
73322;DHT22;61549;37.044;22.128;2023-05-10T04:16:34;20.50;62.80
73322;DHT22;61549;37.044;22.128;2023-05-10T04:19:00;20.50;63.10
73322;DHT22;61549;37.044;22.128;2023-05-10T04:21:26;20.50;63.70
73322;DHT22;61549;37.044;22.128;2023-05-10T04:23:52;20.50;63.50
73322;DHT22;61549;37.044;22.128;2023-05-10T04:26:17;20.50;63.30
73322;DHT22;61549;37.044;22.128;2023-05-10T04:28:43;20.50;63.70
73322;DHT22;61549;37.044;22.128;2023-05-10T04:31:10;20.50;64.10
73322;DHT22;61549;37.044;22.128;2023-05-10T04:33:36;20.50;64.20
73322;DHT22;61549;37.044;22.128;2023-05-10T04:36:02;20.50;63.90
73322;DHT22;61549;37.044;22.128;2023-05-10T04:38:36;20.50;63.60
73322;DHT22;61549;37.044;22.128;2023-05-10T04:41:09;20.60;63.80
73322;DHT22;61549;37.044;22.128;2023-05-10T04:43:35;20.60;63.90
73322;DHT22;61549;37.044;22.128;2023-05-10T04:46:01;20.60;64.20
73322;DHT22;61549;37.044;22.128;2023-05-10T04:48:27;20.60;64.50
73322;DHT22;61549;37.044;22.128;2023-05-10T04:50:53;20.70;64.50
73322;DHT22;61549;37.044;22.128;2023-05-10T04:53:19;20.70;64.00
73322;DHT22;61549;37.044;22.128;2023-05-10T04:55:45;20.80;63.80
73322;DHT22;61549;37.044;22.128;2023-05-10T04:58:12;20.80;63.00
73322;DHT22;61549;37.044;22.128;2023-05-10T05:00:38;20.80;62.70
73322;DHT22;61549;37.044;22.128;2023-05-10T05:03:04;20.90;63.20
73322;DHT22;61549;37.044;22.128;2023-05-10T05:05:29;20.90;63.50
73322;DHT22;61549;37.044;22.128;2023-05-10T05:07:55;21.00;64.00
73322;DHT22;61549;37.044;22.128;2023-05-10T05:10:21;21.10;64.10
73322;DHT22;61549;37.044;22.128;2023-05-10T05:12:47;21.20;64.50
73322;DHT22;61549;37.044;22.128;2023-05-10T05:15:13;21.20;63.30
73322;DHT22;61549;37.044;22.128;2023-05-10T05:17:40;21.20;62.90
73322;DHT22;61549;37.044;22.128;2023-05-10T05:20:07;21.20;62.90
73322;DHT22;61549;37.044;22.128;2023-05-10T05:22:33;21.20;62.40
73322;DHT22;61549;37.044;22.128;2023-05-10T05:24:59;21.30;63.50
73322;DHT22;61549;37.044;22.128;2023-05-10T05:27:26;21.40;64.60
73322;DHT22;61549;37.044;22.128;2023-05-10T05:29:58;21.40;64.30
73322;DHT22;61549;37.044;22.128;2023-05-10T05:32:24;21.40;63.10
73322;DHT22;61549;37.044;22.128;2023-05-10T05:34:50;21.40;62.90
73322;DHT22;61549;37.044;22.128;2023-05-10T05:37:18;21.40;62.70
73322;DHT22;61549;37.044;22.128;2023-05-10T05:39:45;21.40;62.40
73322;DHT22;61549;37.044;22.128;2023-05-10T05:42:11;21.40;61.80
73322;DHT22;61549;37.044;22.128;2023-05-10T05:44:41;21.40;61.60
73322;DHT22;61549;37.044;22.128;2023-05-10T05:47:06;21.50;61.20
73322;DHT22;61549;37.044;22.128;2023-05-10T05:49:32;21.50;61.00
73322;DHT22;61549;37.044;22.128;2023-05-10T05:51:59;21.50;60.90
73322;DHT22;61549;37.044;22.128;2023-05-10T05:54:26;21.60;60.90
73322;DHT22;61549;37.044;22.128;2023-05-10T05:56:57;21.60;60.40
73322;DHT22;61549;37.044;22.128;2023-05-10T05:59:23;21.60;60.30
73322;DHT22;61549;37.044;22.128;2023-05-10T06:01:49;21.60;60.50
73322;DHT22;61549;37.044;22.128;2023-05-10T06:04:16;21.60;60.60
73322;DHT22;61549;37.044;22.128;2023-05-10T06:06:41;21.60;59.80
73322;DHT22;61549;37.044;22.128;2023-05-10T06:09:08;21.60;60.00
73322;DHT22;61549;37.044;22.128;2023-05-10T06:11:34;21.60;59.70
73322;DHT22;61549;37.044;22.128;2023-05-10T06:14:00;21.70;59.40
73322;DHT22;61549;37.044;22.128;2023-05-10T06:16:27;21.80;59.40
73322;DHT22;61549;37.044;22.128;2023-05-10T06:18:53;21.90;59.90
73322;DHT22;61549;37.044;22.128;2023-05-10T06:21:19;21.90;60.00
73322;DHT22;61549;37.044;22.128;2023-05-10T06:23:45;22.00;60.40
73322;DHT22;61549;37.044;22.128;2023-05-10T06:26:11;22.00;60.80
73322;DHT22;61549;37.044;22.128;2023-05-10T06:28:37;21.80;60.60
73322;DHT22;61549;37.044;22.128;2023-05-10T06:31:06;21.70;61.00
73322;DHT22;61549;37.044;22.128;2023-05-10T06:33:32;21.80;60.50
73322;DHT22;61549;37.044;22.128;2023-05-10T06:35:58;21.90;60.90
73322;DHT22;61549;37.044;22.128;2023-05-10T06:38:24;21.90;61.50
73322;DHT22;61549;37.044;22.128;2023-05-10T06:40:53;22.00;60.30
73322;DHT22;61549;37.044;22.128;2023-05-10T06:43:19;22.10;60.20
73322;DHT22;61549;37.044;22.128;2023-05-10T06:45:51;22.10;60.00
73322;DHT22;61549;37.044;22.128;2023-05-10T06:48:17;22.10;60.50
73322;DHT22;61549;37.044;22.128;2023-05-10T06:50:44;22.10;61.30
73322;DHT22;61549;37.044;22.128;2023-05-10T06:53:11;22.10;62.20
73322;DHT22;61549;37.044;22.128;2023-05-10T06:55:40;22.20;62.50
73322;DHT22;61549;37.044;22.128;2023-05-10T06:58:08;22.30;62.50
73322;DHT22;61549;37.044;22.128;2023-05-10T07:00:34;22.40;61.80
73322;DHT22;61549;37.044;22.128;2023-05-10T07:03:00;22.50;61.80
73322;DHT22;61549;37.044;22.128;2023-05-10T07:05:26;22.60;61.50
73322;DHT22;61549;37.044;22.128;2023-05-10T07:07:53;22.70;60.50
73322;DHT22;61549;37.044;22.128;2023-05-10T07:10:19;22.80;60.20
73322;DHT22;61549;37.044;22.128;2023-05-10T07:12:45;23.00;60.30
73322;DHT22;61549;37.044;22.128;2023-05-10T07:15:10;23.10;59.70
73322;DHT22;61549;37.044;22.128;2023-05-10T07:17:36;23.30;58.80
73322;DHT22;61549;37.044;22.128;2023-05-10T07:20:02;23.50;58.40
73322;DHT22;61549;37.044;22.128;2023-05-10T07:22:29;23.50;57.10
73322;DHT22;61549;37.044;22.128;2023-05-10T07:24:55;23.60;56.40
73322;DHT22;61549;37.044;22.128;2023-05-10T07:27:20;23.80;55.30
73322;DHT22;61549;37.044;22.128;2023-05-10T07:29:46;23.80;54.40
73322;DHT22;61549;37.044;22.128;2023-05-10T07:32:12;23.80;53.70
73322;DHT22;61549;37.044;22.128;2023-05-10T07:34:38;23.90;53.30
73322;DHT22;61549;37.044;22.128;2023-05-10T07:37:05;23.90;53.40
73322;DHT22;61549;37.044;22.128;2023-05-10T07:39:31;24.00;55.40
73322;DHT22;61549;37.044;22.128;2023-05-10T07:41:57;24.00;55.60
73322;DHT22;61549;37.044;22.128;2023-05-10T07:44:24;24.00;55.00
73322;DHT22;61549;37.044;22.128;2023-05-10T07:46:50;24.10;54.50
73322;DHT22;61549;37.044;22.128;2023-05-10T07:49:16;24.20;54.30
73322;DHT22;61549;37.044;22.128;2023-05-10T07:51:42;24.20;54.40
73322;DHT22;61549;37.044;22.128;2023-05-10T07:54:08;24.10;54.80
73322;DHT22;61549;37.044;22.128;2023-05-10T07:56:34;24.10;53.90
73322;DHT22;61549;37.044;22.128;2023-05-10T07:59:01;24.30;54.60
73322;DHT22;61549;37.044;22.128;2023-05-10T08:01:31;24.40;54.40
73322;DHT22;61549;37.044;22.128;2023-05-10T08:04:00;24.50;53.40
73322;DHT22;61549;37.044;22.128;2023-05-10T08:06:27;24.60;53.30
73322;DHT22;61549;37.044;22.128;2023-05-10T08:08:55;24.70;53.30
73322;DHT22;61549;37.044;22.128;2023-05-10T08:11:22;24.90;53.10
73322;DHT22;61549;37.044;22.128;2023-05-10T08:13:50;25.10;52.00
73322;DHT22;61549;37.044;22.128;2023-05-10T08:16:17;25.30;51.60
73322;DHT22;61549;37.044;22.128;2023-05-10T08:18:44;25.20;51.20
73322;DHT22;61549;37.044;22.128;2023-05-10T08:21:15;25.20;49.60
73322;DHT22;61549;37.044;22.128;2023-05-10T08:23:42;25.30;47.80
73322;DHT22;61549;37.044;22.128;2023-05-10T08:26:09;25.30;47.60
73322;DHT22;61549;37.044;22.128;2023-05-10T08:28:36;25.10;49.60
73322;DHT22;61549;37.044;22.128;2023-05-10T08:31:04;25.10;50.00
73322;DHT22;61549;37.044;22.128;2023-05-10T08:33:30;25.00;50.20
73322;DHT22;61549;37.044;22.128;2023-05-10T08:35:58;24.90;51.00
73322;DHT22;61549;37.044;22.128;2023-05-10T08:38:24;24.70;51.50
73322;DHT22;61549;37.044;22.128;2023-05-10T08:40:53;24.60;51.90
73322;DHT22;61549;37.044;22.128;2023-05-10T08:43:22;24.50;52.60
73322;DHT22;61549;37.044;22.128;2023-05-10T08:45:52;24.30;52.70
73322;DHT22;61549;37.044;22.128;2023-05-10T08:48:19;24.20;52.30
73322;DHT22;61549;37.044;22.128;2023-05-10T08:50:47;24.10;53.80
73322;DHT22;61549;37.044;22.128;2023-05-10T08:53:15;24.00;52.90
73322;DHT22;61549;37.044;22.128;2023-05-10T08:55:42;24.10;52.10
73322;DHT22;61549;37.044;22.128;2023-05-10T08:58:09;24.00;52.30
73322;DHT22;61549;37.044;22.128;2023-05-10T09:00:35;24.10;51.40
73322;DHT22;61549;37.044;22.128;2023-05-10T09:03:04;24.00;51.40
73322;DHT22;61549;37.044;22.128;2023-05-10T09:05:30;24.10;50.40
73322;DHT22;61549;37.044;22.128;2023-05-10T09:07:56;23.90;51.10
73322;DHT22;61549;37.044;22.128;2023-05-10T09:10:22;23.80;51.90
73322;DHT22;61549;37.044;22.128;2023-05-10T09:12:51;23.90;52.50
73322;DHT22;61549;37.044;22.128;2023-05-10T09:15:18;23.70;53.70
73322;DHT22;61549;37.044;22.128;2023-05-10T09:17:45;23.60;54.60
73322;DHT22;61549;37.044;22.128;2023-05-10T09:20:12;23.40;54.70
73322;DHT22;61549;37.044;22.128;2023-05-10T09:22:37;23.40;55.10
73322;DHT22;61549;37.044;22.128;2023-05-10T09:25:09;23.30;55.60
73322;DHT22;61549;37.044;22.128;2023-05-10T09:27:36;23.20;56.50
73322;DHT22;61549;37.044;22.128;2023-05-10T09:30:03;23.20;56.60
73322;DHT22;61549;37.044;22.128;2023-05-10T09:32:45;23.30;57.00
73322;DHT22;61549;37.044;22.128;2023-05-10T09:35:12;23.50;56.70
73322;DHT22;61549;37.044;22.128;2023-05-10T09:37:40;23.50;55.40
73322;DHT22;61549;37.044;22.128;2023-05-10T09:40:12;23.60;55.90
73322;DHT22;61549;37.044;22.128;2023-05-10T09:42:40;23.60;52.90
73322;DHT22;61549;37.044;22.128;2023-05-10T09:45:07;23.90;53.10
73322;DHT22;61549;37.044;22.128;2023-05-10T09:47:36;24.00;54.20
73322;DHT22;61549;37.044;22.128;2023-05-10T09:50:03;24.10;54.00
73322;DHT22;61549;37.044;22.128;2023-05-10T09:52:31;24.10;54.90
73322;DHT22;61549;37.044;22.128;2023-05-10T09:55:10;24.00;55.10
73322;DHT22;61549;37.044;22.128;2023-05-10T09:57:36;23.90;57.70
73322;DHT22;61549;37.044;22.128;2023-05-10T10:00:02;23.80;57.70
73322;DHT22;61549;37.044;22.128;2023-05-10T10:02:30;23.50;57.50
73322;DHT22;61549;37.044;22.128;2023-05-10T10:04:56;23.40;57.00
73322;DHT22;61549;37.044;22.128;2023-05-10T10:07:23;23.30;56.70
73322;DHT22;61549;37.044;22.128;2023-05-10T10:09:51;23.30;56.30
73322;DHT22;61549;37.044;22.128;2023-05-10T10:12:17;23.20;57.10
73322;DHT22;61549;37.044;22.128;2023-05-10T10:14:43;23.20;56.90
73322;DHT22;61549;37.044;22.128;2023-05-10T10:17:10;23.20;56.60
73322;DHT22;61549;37.044;22.128;2023-05-10T10:19:38;23.40;57.10
73322;DHT22;61549;37.044;22.128;2023-05-10T10:22:05;23.70;56.40
73322;DHT22;61549;37.044;22.128;2023-05-10T10:24:31;23.60;55.80
73322;DHT22;61549;37.044;22.128;2023-05-10T10:27:12;23.70;56.10
73322;DHT22;61549;37.044;22.128;2023-05-10T10:30:21;23.80;55.30
73322;DHT22;61549;37.044;22.128;2023-05-10T10:35:32;23.80;55.20
73322;DHT22;61549;37.044;22.128;2023-05-10T10:37:58;23.90;56.70
73322;DHT22;61549;37.044;22.128;2023-05-10T10:42:52;24.00;56.90
73322;DHT22;61549;37.044;22.128;2023-05-10T10:45:19;24.10;57.40
73322;DHT22;61549;37.044;22.128;2023-05-10T10:47:45;24.20;56.40
73322;DHT22;61549;37.044;22.128;2023-05-10T10:50:23;24.40;55.10
73322;DHT22;61549;37.044;22.128;2023-05-10T10:52:50;24.50;55.60
73322;DHT22;61549;37.044;22.128;2023-05-10T10:55:18;24.50;54.40
73322;DHT22;61549;37.044;22.128;2023-05-10T10:57:48;24.60;53.70
73322;DHT22;61549;37.044;22.128;2023-05-10T11:00:27;24.70;53.80
73322;DHT22;61549;37.044;22.128;2023-05-10T11:02:58;24.80;52.10
73322;DHT22;61549;37.044;22.128;2023-05-10T11:07:56;25.10;52.20
73322;DHT22;61549;37.044;22.128;2023-05-10T11:10:31;25.20;51.70
73322;DHT22;61549;37.044;22.128;2023-05-10T11:13:09;25.10;51.60
73322;DHT22;61549;37.044;22.128;2023-05-10T11:15:37;25.10;52.90
73322;DHT22;61549;37.044;22.128;2023-05-10T11:18:23;25.10;53.90
73322;DHT22;61549;37.044;22.128;2023-05-10T11:21:09;25.10;52.40
73322;DHT22;61549;37.044;22.128;2023-05-10T11:23:55;25.10;51.40
73322;DHT22;61549;37.044;22.128;2023-05-10T11:26:25;25.00;51.60
73322;DHT22;61549;37.044;22.128;2023-05-10T11:28:53;24.90;51.30
73322;DHT22;61549;37.044;22.128;2023-05-10T11:31:22;24.90;51.10
73322;DHT22;61549;37.044;22.128;2023-05-10T11:33:51;24.90;51.50
73322;DHT22;61549;37.044;22.128;2023-05-10T11:36:23;24.80;51.80
73322;DHT22;61549;37.044;22.128;2023-05-10T11:38:49;24.60;51.40
73322;DHT22;61549;37.044;22.128;2023-05-10T11:41:17;24.70;51.10
73322;DHT22;61549;37.044;22.128;2023-05-10T11:43:46;24.70;52.00
73322;DHT22;61549;37.044;22.128;2023-05-10T11:46:12;24.70;52.00
73322;DHT22;61549;37.044;22.128;2023-05-10T11:48:39;24.70;51.40
73322;DHT22;61549;37.044;22.128;2023-05-10T11:51:07;24.80;51.00
73322;DHT22;61549;37.044;22.128;2023-05-10T11:53:33;24.90;50.90
73322;DHT22;61549;37.044;22.128;2023-05-10T11:56:10;24.90;51.40
73322;DHT22;61549;37.044;22.128;2023-05-10T11:58:37;25.00;51.30
73322;DHT22;61549;37.044;22.128;2023-05-10T12:01:07;25.10;50.50
73322;DHT22;61549;37.044;22.128;2023-05-10T12:03:33;25.20;50.50
73322;DHT22;61549;37.044;22.128;2023-05-10T12:06:00;25.30;50.40
73322;DHT22;61549;37.044;22.128;2023-05-10T12:08:27;25.50;50.70
73322;DHT22;61549;37.044;22.128;2023-05-10T12:11:03;25.60;50.20
73322;DHT22;61549;37.044;22.128;2023-05-10T12:13:29;25.80;49.50
73322;DHT22;61549;37.044;22.128;2023-05-10T12:15:57;25.80;49.60
73322;DHT22;61549;37.044;22.128;2023-05-10T12:18:24;25.70;48.90
73322;DHT22;61549;37.044;22.128;2023-05-10T12:21:03;25.70;48.80
73322;DHT22;61549;37.044;22.128;2023-05-10T12:23:29;25.80;48.90
73322;DHT22;61549;37.044;22.128;2023-05-10T12:26:02;25.90;49.10
73322;DHT22;61549;37.044;22.128;2023-05-10T12:28:32;25.80;48.90
73322;DHT22;61549;37.044;22.128;2023-05-10T12:31:02;25.80;48.90
73322;DHT22;61549;37.044;22.128;2023-05-10T12:33:36;25.80;48.90
73322;DHT22;61549;37.044;22.128;2023-05-10T12:36:06;25.80;49.20
73322;DHT22;61549;37.044;22.128;2023-05-10T12:38:34;25.80;49.40
73322;DHT22;61549;37.044;22.128;2023-05-10T12:41:02;25.70;50.00
73322;DHT22;61549;37.044;22.128;2023-05-10T12:43:29;25.80;50.20
73322;DHT22;61549;37.044;22.128;2023-05-10T12:45:55;25.80;50.60
73322;DHT22;61549;37.044;22.128;2023-05-10T12:48:22;26.00;50.40
73322;DHT22;61549;37.044;22.128;2023-05-10T12:50:47;26.00;50.50
73322;DHT22;61549;37.044;22.128;2023-05-10T12:53:14;26.00;50.70
73322;DHT22;61549;37.044;22.128;2023-05-10T12:55:44;26.00;50.70
73322;DHT22;61549;37.044;22.128;2023-05-10T12:58:10;25.80;50.90
73322;DHT22;61549;37.044;22.128;2023-05-10T13:00:36;25.80;51.30
73322;DHT22;61549;37.044;22.128;2023-05-10T13:03:04;25.90;51.10
73322;DHT22;61549;37.044;22.128;2023-05-10T13:05:32;26.00;50.40
73322;DHT22;61549;37.044;22.128;2023-05-10T13:07:58;26.10;50.20
73322;DHT22;61549;37.044;22.128;2023-05-10T13:10:25;26.20;50.30
73322;DHT22;61549;37.044;22.128;2023-05-10T13:12:51;26.30;49.90
73322;DHT22;61549;37.044;22.128;2023-05-10T13:15:17;26.50;49.40
73322;DHT22;61549;37.044;22.128;2023-05-10T13:17:45;26.50;48.30
73322;DHT22;61549;37.044;22.128;2023-05-10T13:20:11;26.70;48.00
73322;DHT22;61549;37.044;22.128;2023-05-10T13:22:37;26.40;49.00
73322;DHT22;61549;37.044;22.128;2023-05-10T13:25:03;26.20;49.60
73322;DHT22;61549;37.044;22.128;2023-05-10T13:27:31;26.10;49.60
73322;DHT22;61549;37.044;22.128;2023-05-10T13:29:57;26.00;49.70
73322;DHT22;61549;37.044;22.128;2023-05-10T13:32:25;25.80;50.50
73322;DHT22;61549;37.044;22.128;2023-05-10T13:34:51;25.80;50.60
73322;DHT22;61549;37.044;22.128;2023-05-10T13:37:17;25.70;50.40
73322;DHT22;61549;37.044;22.128;2023-05-10T13:39:46;25.60;49.90
73322;DHT22;61549;37.044;22.128;2023-05-10T13:42:12;25.50;50.40
73322;DHT22;61549;37.044;22.128;2023-05-10T13:44:38;25.30;49.80
73322;DHT22;61549;37.044;22.128;2023-05-10T13:47:04;24.90;50.50
73322;DHT22;61549;37.044;22.128;2023-05-10T13:49:30;24.80;50.60
73322;DHT22;61549;37.044;22.128;2023-05-10T13:51:56;24.90;51.00
73322;DHT22;61549;37.044;22.128;2023-05-10T13:54:23;25.00;49.40
73322;DHT22;61549;37.044;22.128;2023-05-10T13:56:54;25.10;48.60
73322;DHT22;61549;37.044;22.128;2023-05-10T13:59:20;24.90;48.70
73322;DHT22;61549;37.044;22.128;2023-05-10T14:01:47;24.90;49.30
73322;DHT22;61549;37.044;22.128;2023-05-10T14:04:12;24.90;49.30
73322;DHT22;61549;37.044;22.128;2023-05-10T14:06:38;24.90;49.70
73322;DHT22;61549;37.044;22.128;2023-05-10T14:09:04;25.00;49.90
73322;DHT22;61549;37.044;22.128;2023-05-10T14:11:30;25.20;49.60
73322;DHT22;61549;37.044;22.128;2023-05-10T14:13:56;25.20;49.20
73322;DHT22;61549;37.044;22.128;2023-05-10T14:16:22;25.20;49.40
73322;DHT22;61549;37.044;22.128;2023-05-10T14:18:48;25.20;49.40
73322;DHT22;61549;37.044;22.128;2023-05-10T14:21:14;25.30;50.00
73322;DHT22;61549;37.044;22.128;2023-05-10T14:23:40;25.10;50.30
73322;DHT22;61549;37.044;22.128;2023-05-10T14:26:06;25.00;50.50
73322;DHT22;61549;37.044;22.128;2023-05-10T14:28:33;25.10;50.20
73322;DHT22;61549;37.044;22.128;2023-05-10T14:30:59;25.20;50.00
73322;DHT22;61549;37.044;22.128;2023-05-10T14:33:25;25.30;49.60
73322;DHT22;61549;37.044;22.128;2023-05-10T14:35:51;25.20;49.40
73322;DHT22;61549;37.044;22.128;2023-05-10T14:38:17;25.10;49.60
73322;DHT22;61549;37.044;22.128;2023-05-10T14:40:43;25.10;49.30
73322;DHT22;61549;37.044;22.128;2023-05-10T14:43:08;24.90;49.70
73322;DHT22;61549;37.044;22.128;2023-05-10T14:45:34;24.80;49.10
73322;DHT22;61549;37.044;22.128;2023-05-10T14:48:00;24.80;49.70
73322;DHT22;61549;37.044;22.128;2023-05-10T14:50:30;24.70;50.20
73322;DHT22;61549;37.044;22.128;2023-05-10T14:52:57;24.70;50.60
73322;DHT22;61549;37.044;22.128;2023-05-10T14:55:23;24.90;51.00
73322;DHT22;61549;37.044;22.128;2023-05-10T14:57:49;25.00;50.30
73322;DHT22;61549;37.044;22.128;2023-05-10T15:00:16;24.90;49.20
73322;DHT22;61549;37.044;22.128;2023-05-10T15:02:42;24.80;50.20
73322;DHT22;61549;37.044;22.128;2023-05-10T15:05:08;24.90;50.40
73322;DHT22;61549;37.044;22.128;2023-05-10T15:07:34;25.00;50.10
73322;DHT22;61549;37.044;22.128;2023-05-10T15:10:00;25.10;50.80
73322;DHT22;61549;37.044;22.128;2023-05-10T15:12:25;25.20;50.80
73322;DHT22;61549;37.044;22.128;2023-05-10T15:14:51;25.30;50.40
73322;DHT22;61549;37.044;22.128;2023-05-10T15:17:17;25.30;49.90
73322;DHT22;61549;37.044;22.128;2023-05-10T15:19:43;25.40;49.90
73322;DHT22;61549;37.044;22.128;2023-05-10T15:22:09;25.20;50.10
73322;DHT22;61549;37.044;22.128;2023-05-10T15:24:34;25.20;50.70
73322;DHT22;61549;37.044;22.128;2023-05-10T15:27:00;25.20;50.20
73322;DHT22;61549;37.044;22.128;2023-05-10T15:29:26;25.10;50.00
73322;DHT22;61549;37.044;22.128;2023-05-10T15:31:52;25.20;50.40
73322;DHT22;61549;37.044;22.128;2023-05-10T15:34:19;25.00;50.50
73322;DHT22;61549;37.044;22.128;2023-05-10T15:36:45;24.60;51.90
73322;DHT22;61549;37.044;22.128;2023-05-10T15:39:11;24.80;51.80
73322;DHT22;61549;37.044;22.128;2023-05-10T15:41:37;24.60;52.50